sensor_id;sensor_type;location;lat;lon;timestamp;pressure;altitude;pressure_sealevel;temperature;humidity
37420;BME280;47344;52.374;4.816;2023-02-28T00:01:11;103199.0;;;5.51;95.84
37420;BME280;47344;52.374;4.816;2023-02-28T00:02:47;103193.0;;;5.55;96.02
37420;BME280;47344;52.374;4.816;2023-02-28T00:04:24;103195.0;;;5.68;95.97
37420;BME280;47344;52.374;4.816;2023-02-28T00:07:37;103195.0;;;5.62;95.96
37420;BME280;47344;52.374;4.816;2023-02-28T00:09:14;103198.0;;;5.75;95.75
37420;BME280;47344;52.374;4.816;2023-02-28T00:10:50;103202.0;;;5.86;95.4
37420;BME280;47344;52.374;4.816;2023-02-28T00:12:27;103197.0;;;5.88;94.68
37420;BME280;47344;52.374;4.816;2023-02-28T00:17:15;103200.0;;;5.84;94.98
37420;BME280;47344;52.374;4.816;2023-02-28T00:18:51;103199.0;;;5.73;95.2
37420;BME280;47344;52.374;4.816;2023-02-28T00:22:03;103196.0;;;5.82;95.71
37420;BME280;47344;52.374;4.816;2023-02-28T00:23:39;103198.0;;;5.86;95.67
37420;BME280;47344;52.374;4.816;2023-02-28T00:25:19;103198.0;;;5.75;96.32
37420;BME280;47344;52.374;4.816;2023-02-28T00:28:32;103201.0;;;5.8;96.02
37420;BME280;47344;52.374;4.816;2023-02-28T00:30:11;103193.0;;;5.89;95.87
37420;BME280;47344;52.374;4.816;2023-02-28T00:31:51;103201.0;;;5.85;95.99
37420;BME280;47344;52.374;4.816;2023-02-28T00:33:27;103192.0;;;5.86;96.54
37420;BME280;47344;52.374;4.816;2023-02-28T00:36:42;103195.0;;;6.0;95.96
37420;BME280;47344;52.374;4.816;2023-02-28T00:38:18;103195.0;;;5.97;95.4
37420;BME280;47344;52.374;4.816;2023-02-28T00:39:56;103197.0;;;6.05;95.49
37420;BME280;47344;52.374;4.816;2023-02-28T00:43:08;103196.0;;;6.04;95.13
37420;BME280;47344;52.374;4.816;2023-02-28T00:44:44;103193.0;;;5.98;95.29
37420;BME280;47344;52.374;4.816;2023-02-28T00:46:20;103190.00000000001;;;5.93;95.7
37420;BME280;47344;52.374;4.816;2023-02-28T00:47:57;103184.99999999999;;;5.94;95.91
37420;BME280;47344;52.374;4.816;2023-02-28T00:51:09;103184.99999999999;;;5.91;96.04
37420;BME280;47344;52.374;4.816;2023-02-28T00:52:45;103191.00000000001;;;5.78;96.83
37420;BME280;47344;52.374;4.816;2023-02-28T00:54:23;103192.0;;;5.83;96.74
37420;BME280;47344;52.374;4.816;2023-02-28T00:57:36;103193.0;;;5.96;97.06
37420;BME280;47344;52.374;4.816;2023-02-28T00:59:12;103196.0;;;5.98;96.85
37420;BME280;47344;52.374;4.816;2023-02-28T01:00:49;103194.0;;;6.11;96.47
37420;BME280;47344;52.374;4.816;2023-02-28T01:04:02;103190.00000000001;;;6.12;96.62
37420;BME280;47344;52.374;4.816;2023-02-28T01:05:38;103190.00000000001;;;6.19;96.17
37420;BME280;47344;52.374;4.816;2023-02-28T01:07:14;103190.00000000001;;;6.18;96.03
37420;BME280;47344;52.374;4.816;2023-02-28T01:08:51;103189.00000000001;;;6.29;95.53
37420;BME280;47344;52.374;4.816;2023-02-28T01:12:04;103193.0;;;6.26;95.48
37420;BME280;47344;52.374;4.816;2023-02-28T01:13:40;103197.0;;;6.23;95.55
37420;BME280;47344;52.374;4.816;2023-02-28T01:15:17;103193.0;;;6.18;95.39
37420;BME280;47344;52.374;4.816;2023-02-28T01:18:29;103186.99999999999;;;6.11;95.65
37420;BME280;47344;52.374;4.816;2023-02-28T01:20:06;103191.00000000001;;;6.08;95.84
37420;BME280;47344;52.374;4.816;2023-02-28T01:21:42;103189.00000000001;;;6.22;95.54
37420;BME280;47344;52.374;4.816;2023-02-28T01:24:56;103184.99999999999;;;6.3;95.12
37420;BME280;47344;52.374;4.816;2023-02-28T01:26:32;103183.0;;;6.23;95.2
37420;BME280;47344;52.374;4.816;2023-02-28T01:28:08;103178.0;;;6.26;95.02
37420;BME280;47344;52.374;4.816;2023-02-28T01:29:44;103174.0;;;6.12;95.53
37420;BME280;47344;52.374;4.816;2023-02-28T01:32:59;103171.0;;;6.04;95.67
37420;BME280;47344;52.374;4.816;2023-02-28T01:34:36;103175.0;;;6.11;95.69
37420;BME280;47344;52.374;4.816;2023-02-28T01:36:14;103167.0;;;6.03;96.08
37420;BME280;47344;52.374;4.816;2023-02-28T01:39:27;103167.0;;;6.04;96.9
37420;BME280;47344;52.374;4.816;2023-02-28T01:41:04;103168.0;;;6.13;96.7
37420;BME280;47344;52.374;4.816;2023-02-28T01:42:40;103171.0;;;6.13;96.66
37420;BME280;47344;52.374;4.816;2023-02-28T01:47:02;103167.0;;;6.25;96.24
37420;BME280;47344;52.374;4.816;2023-02-28T01:48:41;103167.0;;;6.34;95.55
37420;BME280;47344;52.374;4.816;2023-02-28T01:51:58;103161.99999999999;;;6.37;95.57
37420;BME280;47344;52.374;4.816;2023-02-28T01:53:39;103161.99999999999;;;6.24;95.58
37420;BME280;47344;52.374;4.816;2023-02-28T01:55:19;103158.0;;;6.36;95.45
37420;BME280;47344;52.374;4.816;2023-02-28T01:57:01;103164.00000000001;;;6.4;95.26
37420;BME280;47344;52.374;4.816;2023-02-28T02:00:20;103163.00000000001;;;6.47;95.11
37420;BME280;47344;52.374;4.816;2023-02-28T02:01:59;103167.0;;;6.38;95.2
37420;BME280;47344;52.374;4.816;2023-02-28T02:03:36;103159.99999999999;;;6.46;95.18
37420;BME280;47344;52.374;4.816;2023-02-28T02:06:53;103158.99999999999;;;6.43;95.03
37420;BME280;47344;52.374;4.816;2023-02-28T02:08:30;103158.0;;;6.53;94.83
37420;BME280;47344;52.374;4.816;2023-02-28T02:10:12;103164.00000000001;;;6.5;94.76
37420;BME280;47344;52.374;4.816;2023-02-28T02:11:51;103156.0;;;6.46;95.3
37420;BME280;47344;52.374;4.816;2023-02-28T02:15:32;103154.0;;;6.5;95.32
37420;BME280;47344;52.374;4.816;2023-02-28T02:17:18;103146.0;;;6.51;95.12
37420;BME280;47344;52.374;4.816;2023-02-28T02:19:14;103141.00000000001;;;6.51;95.23
37420;BME280;47344;52.374;4.816;2023-02-28T02:24:58;103143.0;;;6.42;95.79
37420;BME280;47344;52.374;4.816;2023-02-28T02:27:17;103142.0;;;6.5;95.72
37420;BME280;47344;52.374;4.816;2023-02-28T02:30:07;103138.00000000001;;;6.56;95.74
37420;BME280;47344;52.374;4.816;2023-02-28T02:33:17;103131.0;;;6.49;95.69
37420;BME280;47344;52.374;4.816;2023-02-28T02:35:29;103123.0;;;6.52;94.78
37420;BME280;47344;52.374;4.816;2023-02-28T02:37:14;103127.0;;;6.45;93.89
37420;BME280;47344;52.374;4.816;2023-02-28T02:39:02;103121.0;;;6.32;93.95
37420;BME280;47344;52.374;4.816;2023-02-28T02:42:35;103127.0;;;6.43;93.2
37420;BME280;47344;52.374;4.816;2023-02-28T02:44:20;103133.0;;;6.43;92.49
37420;BME280;47344;52.374;4.816;2023-02-28T02:46:01;103126.0;;;6.44;91.92
37420;BME280;47344;52.374;4.816;2023-02-28T02:47:41;103123.0;;;6.33;91.74
37420;BME280;47344;52.374;4.816;2023-02-28T02:49:22;103127.0;;;6.39;91.19
37420;BME280;47344;52.374;4.816;2023-02-28T02:52:45;103127.0;;;6.53;90.05
37420;BME280;47344;52.374;4.816;2023-02-28T02:54:34;103131.0;;;6.44;89.76
37420;BME280;47344;52.374;4.816;2023-02-28T02:56:13;103129.0;;;6.56;89.05
37420;BME280;47344;52.374;4.816;2023-02-28T02:57:54;103133.99999999999;;;6.48;88.51
37420;BME280;47344;52.374;4.816;2023-02-28T03:01:16;103131.0;;;6.51;87.8
37420;BME280;47344;52.374;4.816;2023-02-28T03:02:56;103130.0;;;6.43;87.22
37420;BME280;47344;52.374;4.816;2023-02-28T03:04:35;103133.99999999999;;;6.55;87.28
37420;BME280;47344;52.374;4.816;2023-02-28T03:06:18;103134.99999999999;;;6.48;87.52
37420;BME280;47344;52.374;4.816;2023-02-28T03:09:33;103136.99999999999;;;6.56;87.48
37420;BME280;47344;52.374;4.816;2023-02-28T03:11:13;103136.99999999999;;;6.61;87.56
37420;BME280;47344;52.374;4.816;2023-02-28T03:12:58;103136.99999999999;;;6.65;87.85
37420;BME280;47344;52.374;4.816;2023-02-28T03:14:50;103138.00000000001;;;6.77;87.83
37420;BME280;47344;52.374;4.816;2023-02-28T03:16:35;103133.99999999999;;;6.71;88.72
37420;BME280;47344;52.374;4.816;2023-02-28T03:20:10;103136.99999999999;;;6.68;89.25
37420;BME280;47344;52.374;4.816;2023-02-28T03:21:58;103133.99999999999;;;6.7;89.41
37420;BME280;47344;52.374;4.816;2023-02-28T03:23:44;103129.0;;;6.6;90.45
37420;BME280;47344;52.374;4.816;2023-02-28T03:25:31;103127.0;;;6.76;90.78
37420;BME280;47344;52.374;4.816;2023-02-28T03:27:17;103123.0;;;6.88;90.49
37420;BME280;47344;52.374;4.816;2023-02-28T03:30:47;103128.0;;;6.74;90.99
37420;BME280;47344;52.374;4.816;2023-02-28T03:32:27;103122.0;;;6.74;91.56
37420;BME280;47344;52.374;4.816;2023-02-28T03:34:12;103122.0;;;6.79;91.98
37420;BME280;47344;52.374;4.816;2023-02-28T03:35:57;103117.0;;;6.74;92.18
37420;BME280;47344;52.374;4.816;2023-02-28T03:37:38;103118.0;;;6.7;92.11
37420;BME280;47344;52.374;4.816;2023-02-28T03:41:01;103122.0;;;6.74;91.89
37420;BME280;47344;52.374;4.816;2023-02-28T03:42:43;103127.0;;;6.63;92.61
37420;BME280;47344;52.374;4.816;2023-02-28T03:44:24;103132.0;;;6.69;92.66
37420;BME280;47344;52.374;4.816;2023-02-28T03:46:08;103134.99999999999;;;6.71;93.21
37420;BME280;47344;52.374;4.816;2023-02-28T03:49:31;103130.0;;;6.76;93.72
37420;BME280;47344;52.374;4.816;2023-02-28T03:51:14;103125.0;;;6.8;93.38
37420;BME280;47344;52.374;4.816;2023-02-28T03:52:58;103124.0;;;6.82;93.49
37420;BME280;47344;52.374;4.816;2023-02-28T03:54:40;103133.0;;;6.78;94.07
37420;BME280;47344;52.374;4.816;2023-02-28T03:56:24;103133.99999999999;;;6.75;94.71
37420;BME280;47344;52.374;4.816;2023-02-28T03:59:56;103133.99999999999;;;6.73;94.68
37420;BME280;47344;52.374;4.816;2023-02-28T04:01:38;103133.99999999999;;;6.76;95.26
37420;BME280;47344;52.374;4.816;2023-02-28T04:03:16;103139.00000000001;;;6.73;95.31
37420;BME280;47344;52.374;4.816;2023-02-28T04:04:52;103132.0;;;6.61;95.38
37420;BME280;47344;52.374;4.816;2023-02-28T04:08:08;103130.0;;;6.42;97.26
37420;BME280;47344;52.374;4.816;2023-02-28T04:09:44;103124.0;;;6.4;97.92
37420;BME280;47344;52.374;4.816;2023-02-28T04:11:23;103125.0;;;6.35;97.8
37420;BME280;47344;52.374;4.816;2023-02-28T04:13:02;103128.0;;;6.23;98.32
37420;BME280;47344;52.374;4.816;2023-02-28T04:16:15;103119.0;;;6.26;98.66
37420;BME280;47344;52.374;4.816;2023-02-28T04:17:51;103116.00000000001;;;6.34;98.25
37420;BME280;47344;52.374;4.816;2023-02-28T04:19:28;103120.0;;;6.27;98.75
37420;BME280;47344;52.374;4.816;2023-02-28T04:22:41;103118.0;;;6.25;99.1
37420;BME280;47344;52.374;4.816;2023-02-28T04:24:18;103123.0;;;6.37;98.44
37420;BME280;47344;52.374;4.816;2023-02-28T04:25:56;103117.0;;;6.34;98.5
37420;BME280;47344;52.374;4.816;2023-02-28T04:27:33;103120.0;;;6.36;97.98
37420;BME280;47344;52.374;4.816;2023-02-28T04:30:54;103117.0;;;6.39;98.23
37420;BME280;47344;52.374;4.816;2023-02-28T04:32:31;103122.0;;;6.31;97.45
37420;BME280;47344;52.374;4.816;2023-02-28T04:34:07;103124.0;;;6.21;98.35
37420;BME280;47344;52.374;4.816;2023-02-28T04:37:19;103119.0;;;6.26;96.73
37420;BME280;47344;52.374;4.816;2023-02-28T04:38:56;103123.0;;;6.25;96.16
37420;BME280;47344;52.374;4.816;2023-02-28T04:40:32;103119.0;;;6.01;96.9
37420;BME280;47344;52.374;4.816;2023-02-28T04:43:46;103118.0;;;6.07;96.8
37420;BME280;47344;52.374;4.816;2023-02-28T04:45:22;103111.99999999999;;;6.07;96.63
37420;BME280;47344;52.374;4.816;2023-02-28T04:46:58;103123.0;;;5.96;95.53
37420;BME280;47344;52.374;4.816;2023-02-28T04:48:36;103123.0;;;6.22;94.46
37420;BME280;47344;52.374;4.816;2023-02-28T04:51:50;103121.0;;;5.99;93.95
37420;BME280;47344;52.374;4.816;2023-02-28T04:53:27;103120.0;;;5.9;93.13
37420;BME280;47344;52.374;4.816;2023-02-28T04:55:05;103126.0;;;5.79;92.28
37420;BME280;47344;52.374;4.816;2023-02-28T04:58:18;103128.0;;;5.72;92.33
37420;BME280;47344;52.374;4.816;2023-02-28T04:59:54;103126.0;;;5.69;92.42
37420;BME280;47344;52.374;4.816;2023-02-28T05:01:32;103130.0;;;5.89;91.14
37420;BME280;47344;52.374;4.816;2023-02-28T05:03:09;103128.0;;;5.96;90.23
37420;BME280;47344;52.374;4.816;2023-02-28T05:06:22;103128.0;;;5.84;91.03
37420;BME280;47344;52.374;4.816;2023-02-28T05:07:59;103128.0;;;5.78;90.95
37420;BME280;47344;52.374;4.816;2023-02-28T05:09:35;103126.0;;;5.69;91.0
37420;BME280;47344;52.374;4.816;2023-02-28T05:12:52;103128.0;;;5.71;91.25
37420;BME280;47344;52.374;4.816;2023-02-28T05:14:29;103117.0;;;5.62;91.76
37420;BME280;47344;52.374;4.816;2023-02-28T05:16:05;103126.0;;;5.76;91.51
37420;BME280;47344;52.374;4.816;2023-02-28T05:19:19;103123.0;;;5.88;90.6
37420;BME280;47344;52.374;4.816;2023-02-28T05:20:55;103125.0;;;5.74;91.1
37420;BME280;47344;52.374;4.816;2023-02-28T05:22:31;103127.0;;;5.69;91.21
37420;BME280;47344;52.374;4.816;2023-02-28T05:24:10;103130.0;;;5.61;91.9
37420;BME280;47344;52.374;4.816;2023-02-28T05:27:24;103123.0;;;5.62;91.85
37420;BME280;47344;52.374;4.816;2023-02-28T05:29:00;103127.0;;;5.71;91.02
37420;BME280;47344;52.374;4.816;2023-02-28T05:30:36;103121.0;;;5.72;91.06
37420;BME280;47344;52.374;4.816;2023-02-28T05:33:49;103122.0;;;5.71;91.6
37420;BME280;47344;52.374;4.816;2023-02-28T05:35:26;103130.0;;;5.81;90.87
37420;BME280;47344;52.374;4.816;2023-02-28T05:37:02;103129.0;;;5.96;90.39
37420;BME280;47344;52.374;4.816;2023-02-28T05:40:15;103133.99999999999;;;5.85;90.74
37420;BME280;47344;52.374;4.816;2023-02-28T05:41:52;103140.00000000001;;;5.79;91.31
37420;BME280;47344;52.374;4.816;2023-02-28T05:43:28;103134.99999999999;;;5.87;90.86
37420;BME280;47344;52.374;4.816;2023-02-28T05:45:05;103136.99999999999;;;5.75;91.61
37420;BME280;47344;52.374;4.816;2023-02-28T05:48:17;103134.99999999999;;;5.69;91.01
37420;BME280;47344;52.374;4.816;2023-02-28T05:49:53;103131.0;;;5.71;91.19
37420;BME280;47344;52.374;4.816;2023-02-28T05:54:42;103134.99999999999;;;5.59;91.91
37420;BME280;47344;52.374;4.816;2023-02-28T05:56:18;103136.99999999999;;;5.58;92.1
37420;BME280;47344;52.374;4.816;2023-02-28T05:57:54;103134.99999999999;;;5.61;91.82
37420;BME280;47344;52.374;4.816;2023-02-28T06:01:32;103136.99999999999;;;5.67;91.4
37420;BME280;47344;52.374;4.816;2023-02-28T06:03:09;103132.0;;;5.67;91.97
37420;BME280;47344;52.374;4.816;2023-02-28T06:04:45;103127.0;;;5.56;93.06
37420;BME280;47344;52.374;4.816;2023-02-28T06:06:22;103133.0;;;5.64;92.4
37420;BME280;47344;52.374;4.816;2023-02-28T06:07:58;103131.0;;;5.47;93.63
37420;BME280;47344;52.374;4.816;2023-02-28T06:11:11;103134.99999999999;;;5.64;93.62
37420;BME280;47344;52.374;4.816;2023-02-28T06:12:48;103131.0;;;5.56;93.82
37420;BME280;47344;52.374;4.816;2023-02-28T06:14:25;103138.00000000001;;;5.52;94.68
37420;BME280;47344;52.374;4.816;2023-02-28T06:17:37;103133.0;;;5.46;95.39
37420;BME280;47344;52.374;4.816;2023-02-28T06:19:13;103136.99999999999;;;5.36;95.45
37420;BME280;47344;52.374;4.816;2023-02-28T06:20:52;103134.99999999999;;;5.37;96.1
37420;BME280;47344;52.374;4.816;2023-02-28T06:24:05;103141.00000000001;;;5.4;96.41
37420;BME280;47344;52.374;4.816;2023-02-28T06:25:44;103144.0;;;5.31;96.77
37420;BME280;47344;52.374;4.816;2023-02-28T06:27:21;103143.0;;;5.12;98.09
37420;BME280;47344;52.374;4.816;2023-02-28T06:28:57;103144.0;;;5.03;99.46
37420;BME280;47344;52.374;4.816;2023-02-28T06:32:09;103146.0;;;4.91;100.0
37420;BME280;47344;52.374;4.816;2023-02-28T06:33:46;103143.0;;;4.83;100.0
37420;BME280;47344;52.374;4.816;2023-02-28T06:35:22;103148.0;;;4.8;100.0
37420;BME280;47344;52.374;4.816;2023-02-28T06:38:36;103150.0;;;4.68;100.0
37420;BME280;47344;52.374;4.816;2023-02-28T06:40:14;103158.99999999999;;;4.7;100.0
37420;BME280;47344;52.374;4.816;2023-02-28T06:41:51;103151.0;;;4.74;100.0
37420;BME280;47344;52.374;4.816;2023-02-28T06:45:06;103152.0;;;4.7;100.0
37420;BME280;47344;52.374;4.816;2023-02-28T06:46:43;103155.0;;;4.63;100.0
37420;BME280;47344;52.374;4.816;2023-02-28T06:48:21;103155.0;;;4.79;100.0
37420;BME280;47344;52.374;4.816;2023-02-28T06:49:56;103156.0;;;4.71;100.0
37420;BME280;47344;52.374;4.816;2023-02-28T06:53:09;103164.00000000001;;;4.66;100.0
37420;BME280;47344;52.374;4.816;2023-02-28T06:54:45;103161.99999999999;;;4.68;100.0
37420;BME280;47344;52.374;4.816;2023-02-28T06:56:21;103166.00000000001;;;4.57;100.0
37420;BME280;47344;52.374;4.816;2023-02-28T06:59:35;103167.0;;;4.53;100.0
37420;BME280;47344;52.374;4.816;2023-02-28T07:01:11;103168.0;;;4.58;100.0
37420;BME280;47344;52.374;4.816;2023-02-28T07:02:49;103172.0;;;4.64;100.0
37420;BME280;47344;52.374;4.816;2023-02-28T07:06:01;103175.0;;;4.53;100.0
37420;BME280;47344;52.374;4.816;2023-02-28T07:07:38;103181.0;;;4.45;100.0
37420;BME280;47344;52.374;4.816;2023-02-28T07:09:15;103181.0;;;4.43;100.0
37420;BME280;47344;52.374;4.816;2023-02-28T07:10:52;103173.0;;;4.32;100.0
37420;BME280;47344;52.374;4.816;2023-02-28T07:14:05;103174.0;;;4.16;100.0
37420;BME280;47344;52.374;4.816;2023-02-28T07:15:41;103173.0;;;4.18;100.0
37420;BME280;47344;52.374;4.816;2023-02-28T07:17:17;103174.0;;;4.13;100.0
37420;BME280;47344;52.374;4.816;2023-02-28T07:20:30;103177.0;;;4.12;100.0
37420;BME280;47344;52.374;4.816;2023-02-28T07:22:07;103181.0;;;4.03;100.0
37420;BME280;47344;52.374;4.816;2023-02-28T07:23:44;103183.0;;;3.98;100.0
37420;BME280;47344;52.374;4.816;2023-02-28T07:26:56;103189.00000000001;;;3.75;100.0
37420;BME280;47344;52.374;4.816;2023-02-28T07:28:33;103192.0;;;3.61;100.0
37420;BME280;47344;52.374;4.816;2023-02-28T07:30:10;103194.0;;;3.56;100.0
37420;BME280;47344;52.374;4.816;2023-02-28T07:31:46;103191.00000000001;;;3.5;100.0
37420;BME280;47344;52.374;4.816;2023-02-28T07:34:59;103192.0;;;3.5;100.0
37420;BME280;47344;52.374;4.816;2023-02-28T07:36:35;103192.0;;;3.6;100.0
37420;BME280;47344;52.374;4.816;2023-02-28T07:38:11;103198.0;;;3.57;100.0
37420;BME280;47344;52.374;4.816;2023-02-28T07:41:24;103201.0;;;3.48;100.0
37420;BME280;47344;52.374;4.816;2023-02-28T07:42:59;103206.0;;;3.51;100.0
37420;BME280;47344;52.374;4.816;2023-02-28T07:44:36;103206.0;;;3.42;100.0
37420;BME280;47344;52.374;4.816;2023-02-28T07:47:52;103208.99999999999;;;3.41;100.0
37420;BME280;47344;52.374;4.816;2023-02-28T07:49:29;103209.99999999999;;;3.32;100.0
37420;BME280;47344;52.374;4.816;2023-02-28T07:51:05;103205.0;;;3.39;100.0
37420;BME280;47344;52.374;4.816;2023-02-28T07:52:41;103198.0;;;3.34;100.0
37420;BME280;47344;52.374;4.816;2023-02-28T07:55:55;103199.0;;;3.23;100.0
37420;BME280;47344;52.374;4.816;2023-02-28T07:57:31;103203.0;;;3.18;100.0
37420;BME280;47344;52.374;4.816;2023-02-28T07:59:07;103201.0;;;3.14;100.0
37420;BME280;47344;52.374;4.816;2023-02-28T08:02:20;103198.0;;;3.19;100.0
37420;BME280;47344;52.374;4.816;2023-02-28T08:03:56;103204.0;;;3.19;100.0
37420;BME280;47344;52.374;4.816;2023-02-28T08:05:32;103203.0;;;3.26;100.0
37420;BME280;47344;52.374;4.816;2023-02-28T08:08:44;103206.0;;;3.13;100.0
37420;BME280;47344;52.374;4.816;2023-02-28T08:10:20;103208.0;;;3.18;100.0
37420;BME280;47344;52.374;4.816;2023-02-28T08:11:57;103209.99999999999;;;3.16;100.0
37420;BME280;47344;52.374;4.816;2023-02-28T08:13:33;103207.0;;;3.11;100.0
37420;BME280;47344;52.374;4.816;2023-02-28T08:16:46;103211.99999999999;;;3.19;100.0
37420;BME280;47344;52.374;4.816;2023-02-28T08:18:23;103204.0;;;3.22;100.0
37420;BME280;47344;52.374;4.816;2023-02-28T08:20:00;103208.99999999999;;;3.18;100.0
37420;BME280;47344;52.374;4.816;2023-02-28T08:23:12;103203.0;;;3.11;100.0
37420;BME280;47344;52.374;4.816;2023-02-28T08:24:49;103205.0;;;3.17;100.0
37420;BME280;47344;52.374;4.816;2023-02-28T08:26:25;103200.0;;;3.17;100.0
37420;BME280;47344;52.374;4.816;2023-02-28T08:29:38;103206.0;;;3.2;100.0
37420;BME280;47344;52.374;4.816;2023-02-28T08:31:16;103199.0;;;3.24;100.0
37420;BME280;47344;52.374;4.816;2023-02-28T08:32:53;103207.0;;;3.24;100.0
37420;BME280;47344;52.374;4.816;2023-02-28T08:34:29;103209.99999999999;;;3.28;100.0
37420;BME280;47344;52.374;4.816;2023-02-28T08:37:43;103205.0;;;3.4;100.0
37420;BME280;47344;52.374;4.816;2023-02-28T08:39:19;103211.99999999999;;;3.31;100.0
37420;BME280;47344;52.374;4.816;2023-02-28T08:40:57;103207.0;;;3.28;100.0
37420;BME280;47344;52.374;4.816;2023-02-28T08:44:12;103205.0;;;3.26;100.0
37420;BME280;47344;52.374;4.816;2023-02-28T08:45:51;103213.00000000001;;;3.29;100.0
37420;BME280;47344;52.374;4.816;2023-02-28T08:47:27;103206.0;;;3.28;100.0
37420;BME280;47344;52.374;4.816;2023-02-28T08:49:04;103209.99999999999;;;3.32;100.0
37420;BME280;47344;52.374;4.816;2023-02-28T08:52:16;103213.00000000001;;;3.43;100.0
37420;BME280;47344;52.374;4.816;2023-02-28T08:53:53;103211.99999999999;;;3.53;100.0
37420;BME280;47344;52.374;4.816;2023-02-28T08:55:30;103207.0;;;3.54;100.0
37420;BME280;47344;52.374;4.816;2023-02-28T08:58:42;103207.0;;;3.53;100.0
37420;BME280;47344;52.374;4.816;2023-02-28T09:00:21;103201.0;;;3.53;100.0
37420;BME280;47344;52.374;4.816;2023-02-28T09:01:57;103202.0;;;3.74;100.0
37420;BME280;47344;52.374;4.816;2023-02-28T09:05:10;103207.0;;;3.71;100.0
37420;BME280;47344;52.374;4.816;2023-02-28T09:06:46;103206.0;;;3.72;100.0
37420;BME280;47344;52.374;4.816;2023-02-28T09:08:22;103207.0;;;3.72;100.0
37420;BME280;47344;52.374;4.816;2023-02-28T09:09:59;103205.0;;;3.89;100.0
37420;BME280;47344;52.374;4.816;2023-02-28T09:13:12;103208.0;;;4.21;100.0
37420;BME280;47344;52.374;4.816;2023-02-28T09:14:49;103207.0;;;4.26;100.0
37420;BME280;47344;52.374;4.816;2023-02-28T09:16:25;103208.0;;;4.38;100.0
37420;BME280;47344;52.374;4.816;2023-02-28T09:19:37;103208.0;;;4.5;100.0
37420;BME280;47344;52.374;4.816;2023-02-28T09:21:15;103207.0;;;4.57;100.0
37420;BME280;47344;52.374;4.816;2023-02-28T09:22:52;103208.0;;;4.26;100.0
37420;BME280;47344;52.374;4.816;2023-02-28T09:26:05;103205.0;;;4.24;100.0
37420;BME280;47344;52.374;4.816;2023-02-28T09:27:42;103203.0;;;4.21;100.0
37420;BME280;47344;52.374;4.816;2023-02-28T09:29:18;103202.0;;;4.3;100.0
37420;BME280;47344;52.374;4.816;2023-02-28T09:30:54;103201.0;;;4.43;100.0
37420;BME280;47344;52.374;4.816;2023-02-28T09:34:07;103206.0;;;4.55;100.0
37420;BME280;47344;52.374;4.816;2023-02-28T09:35:44;103206.0;;;4.64;100.0
37420;BME280;47344;52.374;4.816;2023-02-28T09:37:19;103208.0;;;4.71;100.0
37420;BME280;47344;52.374;4.816;2023-02-28T09:40:35;103201.0;;;4.8;100.0
37420;BME280;47344;52.374;4.816;2023-02-28T09:42:21;103202.0;;;4.8;100.0
37420;BME280;47344;52.374;4.816;2023-02-28T09:44:07;103203.0;;;4.89;100.0
37420;BME280;47344;52.374;4.816;2023-02-28T09:45:52;103214.00000000001;;;4.89;100.0
37420;BME280;47344;52.374;4.816;2023-02-28T09:49:14;103217.0;;;4.92;100.0
37420;BME280;47344;52.374;4.816;2023-02-28T09:50:55;103216.00000000001;;;4.91;100.0
37420;BME280;47344;52.374;4.816;2023-02-28T09:52:36;103217.0;;;4.92;100.0
37420;BME280;47344;52.374;4.816;2023-02-28T09:54:15;103216.00000000001;;;5.0;100.0
37420;BME280;47344;52.374;4.816;2023-02-28T09:57:37;103215.00000000001;;;4.96;100.0
37420;BME280;47344;52.374;4.816;2023-02-28T09:59:25;103220.0;;;5.08;100.0
37420;BME280;47344;52.374;4.816;2023-02-28T10:01:23;103221.0;;;5.15;100.0
37420;BME280;47344;52.374;4.816;2023-02-28T10:03:23;103219.0;;;5.33;100.0
37420;BME280;47344;52.374;4.816;2023-02-28T10:05:05;103225.0;;;5.31;100.0
37420;BME280;47344;52.374;4.816;2023-02-28T10:06:46;103225.0;;;5.3;100.0
37420;BME280;47344;52.374;4.816;2023-02-28T10:10:17;103224.0;;;5.11;97.15
37420;BME280;47344;52.374;4.816;2023-02-28T10:12:01;103211.99999999999;;;5.07;95.45
37420;BME280;47344;52.374;4.816;2023-02-28T10:13:49;103222.0;;;5.12;95.2
37420;BME280;47344;52.374;4.816;2023-02-28T10:15:30;103232.0;;;5.09;93.89
37420;BME280;47344;52.374;4.816;2023-02-28T10:17:11;103232.0;;;4.99;90.54
37420;BME280;47344;52.374;4.816;2023-02-28T10:20:37;103225.0;;;4.95;88.45
37420;BME280;47344;52.374;4.816;2023-02-28T10:22:17;103223.0;;;4.87;89.18
37420;BME280;47344;52.374;4.816;2023-02-28T10:24:03;103226.0;;;4.95;90.42
37420;BME280;47344;52.374;4.816;2023-02-28T10:25:57;103220.0;;;5.14;90.78
37420;BME280;47344;52.374;4.816;2023-02-28T10:27:34;103217.0;;;5.17;91.87
37420;BME280;47344;52.374;4.816;2023-02-28T10:30:49;103216.00000000001;;;5.27;90.89
37420;BME280;47344;52.374;4.816;2023-02-28T10:32:27;103214.00000000001;;;5.39;90.06
37420;BME280;47344;52.374;4.816;2023-02-28T10:34:07;103221.0;;;5.38;89.01
37420;BME280;47344;52.374;4.816;2023-02-28T10:35:47;103228.0;;;5.37;89.75
37420;BME280;47344;52.374;4.816;2023-02-28T10:39:34;103226.0;;;5.34;87.52
37420;BME280;47344;52.374;4.816;2023-02-28T10:41:13;103225.0;;;5.36;88.07
37420;BME280;47344;52.374;4.816;2023-02-28T10:42:56;103232.0;;;5.15;84.54
37420;BME280;47344;52.374;4.816;2023-02-28T10:44:34;103228.0;;;5.31;85.34
37420;BME280;47344;52.374;4.816;2023-02-28T10:47:53;103223.0;;;5.35;85.15
37420;BME280;47344;52.374;4.816;2023-02-28T10:49:30;103223.0;;;5.28;86.65
37420;BME280;47344;52.374;4.816;2023-02-28T10:51:08;103217.0;;;5.4;87.74
37420;BME280;47344;52.374;4.816;2023-02-28T10:52:46;103221.0;;;5.66;87.6
37420;BME280;47344;52.374;4.816;2023-02-28T10:56:05;103224.0;;;5.64;84.01
37420;BME280;47344;52.374;4.816;2023-02-28T10:57:49;103226.0;;;5.54;82.41
37420;BME280;47344;52.374;4.816;2023-02-28T10:59:28;103221.0;;;5.48;83.82
37420;BME280;47344;52.374;4.816;2023-02-28T11:04:35;103216.00000000001;;;5.62;82.5
37420;BME280;47344;52.374;4.816;2023-02-28T11:06:16;103219.0;;;5.9;81.17
37420;BME280;47344;52.374;4.816;2023-02-28T11:07:55;103216.00000000001;;;6.09;79.91